Time;durP1;ratioP1;P1;durP2;ratioP2;P2;SDS_P1;SDS_P2;PMS_P1;PMS_P2;Temp;Humidity;BMP_temperature;BMP_pressure;BME280_temperature;BME280_humidity;BME280_pressure;Samples;Min_cycle;Max_cycle;Signal;HPM_P1;HPM_P2
2023/07/11 00:00:38;;;;;;;13.85;6.07;;;29.50;68.10;;;;;;5025055;28;20082;-57
2023/07/11 00:03:03;;;;;;;15.43;6.55;;;29.40;68.10;;;;;;5024655;28;20034;-57
2023/07/11 00:05:29;;;;;;;16.02;6.80;;;29.40;68.20;;;;;;5023656;28;20056;-57
2023/07/11 00:07:54;;;;;;;13.38;5.93;;;29.40;68.20;;;;;;5026079;28;20089;-57
2023/07/11 00:10:20;;;;;;;13.00;6.90;;;29.40;68.30;;;;;;5025934;28;20026;-58
2023/07/11 00:12:46;;;;;;;13.18;6.78;;;29.40;68.40;;;;;;5023889;28;20030;-57
2023/07/11 00:15:12;;;;;;;10.75;6.85;;;29.40;68.40;;;;;;5022426;28;20014;-58
2023/07/11 00:17:38;;;;;;;14.07;6.82;;;29.30;68.40;;;;;;5026185;28;20042;-57
2023/07/11 00:20:08;;;;;;;12.18;6.43;;;29.30;68.40;;;;;;5024938;28;20056;-57
2023/07/11 00:22:34;;;;;;;13.75;6.50;;;29.30;68.50;;;;;;5026027;28;20115;-57
2023/07/11 00:24:59;;;;;;;11.02;6.70;;;29.20;68.40;;;;;;5022713;28;20034;-57
2023/07/11 00:27:25;;;;;;;10.10;6.20;;;29.20;68.50;;;;;;5029027;28;20059;-57
2023/07/11 00:29:51;;;;;;;10.48;6.30;;;29.20;68.50;;;;;;5019712;28;20023;-57
2023/07/11 00:32:16;;;;;;;10.85;5.85;;;29.20;68.60;;;;;;5027140;28;20042;-57
2023/07/11 00:34:42;;;;;;;12.63;6.60;;;29.20;68.70;;;;;;5028751;28;20022;-57
2023/07/11 00:37:08;;;;;;;9.85;6.15;;;29.10;68.70;;;;;;5021763;28;20030;-57
2023/07/11 00:39:34;;;;;;;10.55;6.13;;;29.10;68.80;;;;;;5028426;28;20029;-57
2023/07/11 00:42:00;;;;;;;9.70;6.35;;;29.10;68.90;;;;;;5026877;28;20038;-57
2023/07/11 00:44:25;;;;;;;12.82;6.70;;;29.10;69.00;;;;;;5020848;28;20030;-58
2023/07/11 00:46:51;;;;;;;9.80;6.35;;;29.00;68.90;;;;;;5001088;28;20034;-57
2023/07/11 00:49:19;;;;;;;10.32;6.80;;;29.00;69.00;;;;;;5027702;28;20069;-57
2023/07/11 00:52:10;;;;;;;11.07;6.47;;;29.00;69.10;;;;;;5021405;28;20022;-57
2023/07/11 00:54:36;;;;;;;11.40;6.82;;;29.00;69.10;;;;;;5012620;28;20038;-55
2023/07/11 00:57:04;;;;;;;12.25;7.20;;;29.00;69.80;;;;;;5026929;28;20030;-57
2023/07/11 00:59:29;;;;;;;16.98;8.15;;;29.00;69.20;;;;;;5027966;28;20486;-56
2023/07/11 01:02:06;;;;;;;13.45;9.30;;;28.90;69.30;;;;;;5024555;28;20030;-55
2023/07/11 01:04:32;;;;;;;15.50;8.68;;;28.90;70.00;;;;;;5026808;28;20428;-56
2023/07/11 01:06:58;;;;;;;17.63;9.07;;;28.80;69.40;;;;;;5010727;28;20053;-56
2023/07/11 01:09:23;;;;;;;14.70;9.70;;;28.80;69.50;;;;;;5026072;28;20109;-56
2023/07/11 01:12:02;;;;;;;16.02;9.02;;;28.80;69.70;;;;;;5025241;28;20110;-56
2023/07/11 01:14:28;;;;;;;17.63;9.60;;;28.80;69.60;;;;;;5027296;28;20053;-56
2023/07/11 01:16:53;;;;;;;18.15;9.50;;;28.80;69.80;;;;;;5026825;28;20038;-56
2023/07/11 01:19:20;;;;;;;17.27;9.55;;;28.80;69.90;;;;;;5024749;28;20041;-56
2023/07/11 01:21:46;;;;;;;13.88;8.93;;;28.80;69.80;;;;;;5026374;28;20139;-55
2023/07/11 01:24:12;;;;;;;14.90;8.95;;;28.70;69.70;;;;;;5007185;28;20031;-56
2023/07/11 01:26:37;;;;;;;20.25;9.18;;;28.70;69.70;;;;;;5009027;28;20092;-56
2023/07/11 01:29:04;;;;;;;13.30;8.63;;;28.70;69.80;;;;;;5021669;28;20481;-58
2023/07/11 01:31:33;;;;;;;15.98;9.05;;;28.70;69.90;;;;;;5026786;28;20036;-56
2023/07/11 01:33:59;;;;;;;14.75;8.93;;;28.70;70.00;;;;;;5027077;28;20037;-56
2023/07/11 01:36:25;;;;;;;14.05;9.23;;;28.60;70.00;;;;;;5026928;28;20458;-56
2023/07/11 01:38:50;;;;;;;14.45;8.77;;;28.60;70.10;;;;;;5026907;28;20049;-56
2023/07/11 01:41:16;;;;;;;15.45;8.82;;;28.60;70.10;;;;;;5027955;28;20093;-56
2023/07/11 01:43:42;;;;;;;17.10;8.55;;;28.60;70.20;;;;;;5028108;28;20467;-56
2023/07/11 01:46:07;;;;;;;19.23;8.57;;;28.60;70.20;;;;;;5025172;28;20080;-56
2023/07/11 01:48:33;;;;;;;14.05;9.10;;;28.50;70.20;;;;;;5018145;28;20034;-55
2023/07/11 01:50:58;;;;;;;12.48;8.50;;;28.50;70.30;;;;;;5022836;28;20026;-56
2023/07/11 01:53:24;;;;;;;11.52;8.95;;;28.50;70.30;;;;;;5026874;28;20373;-56
2023/07/11 01:55:57;;;;;;;14.93;9.02;;;28.50;70.30;;;;;;5024049;28;20048;-56
2023/07/11 01:58:22;;;;;;;12.85;8.93;;;28.50;70.30;;;;;;5026544;28;20061;-56
2023/07/11 02:00:48;;;;;;;15.38;9.82;;;28.50;70.50;;;;;;5024857;28;20025;-56
2023/07/11 02:03:13;;;;;;;12.57;9.30;;;28.40;70.60;;;;;;5026161;28;20022;-56
2023/07/11 02:05:40;;;;;;;18.77;9.38;;;28.50;70.60;;;;;;5022187;28;20090;-57
2023/07/11 02:08:05;;;;;;;13.65;9.88;;;28.40;70.60;;;;;;5026002;28;20044;-57
2023/07/11 02:10:31;;;;;;;15.43;9.23;;;28.40;70.70;;;;;;5026546;28;20089;-57
2023/07/11 02:12:56;;;;;;;23.13;9.63;;;28.40;70.70;;;;;;5010176;28;20042;-56
2023/07/11 02:15:22;;;;;;;14.23;9.73;;;28.30;70.80;;;;;;5005554;28;20032;-56
2023/07/11 02:17:47;;;;;;;15.52;9.05;;;28.30;70.90;;;;;;5016947;28;20034;-57
2023/07/11 02:20:13;;;;;;;13.32;9.18;;;28.30;70.90;;;;;;5013706;28;20057;-56
2023/07/11 02:22:38;;;;;;;13.82;9.20;;;28.30;71.00;;;;;;5022164;28;20066;-56
2023/07/11 02:25:04;;;;;;;16.25;9.23;;;28.30;71.10;;;;;;5025620;28;20036;-56
2023/07/11 02:27:30;;;;;;;10.15;8.35;;;28.20;71.10;;;;;;5023962;28;20123;-57
2023/07/11 02:29:55;;;;;;;14.35;8.57;;;28.20;71.20;;;;;;5023941;28;20032;-56
2023/07/11 02:32:21;;;;;;;12.15;9.13;;;28.20;71.20;;;;;;5008153;28;20038;-56
2023/07/11 02:34:46;;;;;;;13.85;8.93;;;28.10;71.20;;;;;;5026771;28;20061;-56
2023/07/11 02:37:12;;;;;;;15.05;8.35;;;28.20;71.30;;;;;;5026035;28;20034;-56
2023/07/11 02:39:38;;;;;;;10.88;8.20;;;28.10;71.20;;;;;;5026932;28;20029;-56
2023/07/11 02:42:03;;;;;;;15.45;7.65;;;28.10;71.30;;;;;;5022847;28;20072;-56
2023/07/11 02:44:29;;;;;;;12.15;7.80;;;28.10;71.40;;;;;;5025876;28;20146;-57
2023/07/11 02:46:54;;;;;;;13.30;8.00;;;28.10;71.50;;;;;;5026097;28;20033;-56
2023/07/11 02:49:20;;;;;;;12.82;7.47;;;28.00;71.50;;;;;;5024344;28;20026;-56
2023/07/11 02:51:46;;;;;;;13.48;8.38;;;28.00;71.50;;;;;;5025243;28;20026;-56
2023/07/11 02:54:11;;;;;;;15.02;7.53;;;28.00;71.60;;;;;;5029320;28;20036;-56
2023/07/11 02:56:37;;;;;;;12.82;8.00;;;28.00;71.70;;;;;;5026371;28;20101;-56
2023/07/11 02:59:03;;;;;;;12.15;7.40;;;28.00;71.80;;;;;;5014266;28;20030;-57
2023/07/11 03:01:32;;;;;;;9.93;7.45;;;28.00;71.90;;;;;;5001665;28;20030;-57
2023/07/11 03:03:58;;;;;;;12.98;7.07;;;28.00;71.90;;;;;;5007392;28;20493;-57
2023/07/11 03:06:24;;;;;;;9.95;7.32;;;27.90;71.90;;;;;;5010752;28;20038;-57
2023/07/11 03:08:49;;;;;;;10.05;7.20;;;27.90;71.90;;;;;;5024692;28;20038;-58
2023/07/11 03:11:15;;;;;;;12.98;7.30;;;27.90;72.10;;;;;;5024996;28;20395;-57
2023/07/11 03:13:41;;;;;;;15.82;6.93;;;27.90;72.10;;;;;;5026677;28;20377;-58
2023/07/11 03:16:06;;;;;;;11.60;7.07;;;27.90;72.20;;;;;;5025617;28;20036;-57
2023/07/11 03:18:32;;;;;;;11.30;6.82;;;27.80;72.20;;;;;;5024728;28;20058;-57
2023/07/11 03:20:58;;;;;;;12.15;7.10;;;27.90;72.20;;;;;;5024070;28;20033;-57
2023/07/11 03:23:24;;;;;;;10.35;7.15;;;27.80;72.30;;;;;;5024487;28;20029;-57
2023/07/11 03:25:50;;;;;;;8.90;7.07;;;27.80;72.40;;;;;;5025922;28;20025;-57
2023/07/11 03:28:15;;;;;;;7.68;6.03;;;27.80;72.40;;;;;;5020616;28;20106;-57
2023/07/11 03:30:41;;;;;;;10.43;6.75;;;27.70;72.40;;;;;;5026288;28;20034;-57
2023/07/11 03:33:07;;;;;;;7.10;6.00;;;27.70;72.50;;;;;;5004636;28;20054;-57
2023/07/11 03:35:33;;;;;;;10.20;6.70;;;27.70;72.80;;;;;;5008484;28;20014;-57
2023/07/11 03:37:58;;;;;;;11.18;6.47;;;27.70;72.90;;;;;;5023666;28;20076;-57
2023/07/11 03:40:24;;;;;;;11.68;6.38;;;27.60;72.90;;;;;;5024160;28;20026;-58
2023/07/11 03:42:50;;;;;;;18.00;7.97;;;27.60;72.70;;;;;;5025540;28;20105;-57
2023/07/11 03:45:15;;;;;;;47.42;10.55;;;27.60;72.70;;;;;;5014118;28;20038;-57
2023/07/11 03:47:41;;;;;;;44.08;10.98;;;27.60;72.70;;;;;;5018444;28;20387;-58
2023/07/11 03:50:07;;;;;;;49.25;11.52;;;27.60;72.80;;;;;;5005285;28;20534;-57
2023/07/11 03:52:34;;;;;;;45.85;9.80;;;27.60;72.90;;;;;;5025500;28;20045;-57
2023/07/11 03:54:59;;;;;;;39.25;9.23;;;27.60;73.10;;;;;;5024076;28;20066;-58
2023/07/11 03:57:25;;;;;;;37.53;9.20;;;27.50;73.10;;;;;;5024514;28;20034;-57
2023/07/11 03:59:50;;;;;;;33.47;8.65;;;27.50;73.20;;;;;;5025602;28;20038;-57
2023/07/11 04:02:16;;;;;;;33.70;8.07;;;27.50;73.40;;;;;;5029596;28;20085;-56
2023/07/11 04:04:42;;;;;;;25.38;8.57;;;27.40;73.40;;;;;;5029029;28;20030;-56
2023/07/11 04:07:07;;;;;;;26.08;8.75;;;27.40;73.60;;;;;;5028151;28;20486;-56
2023/07/11 04:09:33;;;;;;;19.48;8.15;;;27.40;73.80;;;;;;5028232;28;20057;-56
2023/07/11 04:11:58;;;;;;;20.67;8.32;;;27.40;74.10;;;;;;5027432;28;20386;-56
2023/07/11 04:14:24;;;;;;;18.80;7.82;;;27.40;73.90;;;;;;5023846;28;20375;-56
2023/07/11 04:16:49;;;;;;;25.05;8.20;;;27.40;73.60;;;;;;5011982;28;20034;-56
2023/07/11 04:19:16;;;;;;;20.08;7.65;;;27.40;73.60;;;;;;5029935;28;20057;-56
2023/07/11 04:21:41;;;;;;;19.88;7.93;;;27.40;73.60;;;;;;5027773;28;20053;-56
2023/07/11 04:24:07;;;;;;;18.10;7.38;;;27.40;73.60;;;;;;5028427;28;20386;-57
2023/07/11 04:26:32;;;;;;;23.33;7.57;;;27.30;73.60;;;;;;5029415;28;20482;-56
2023/07/11 04:28:58;;;;;;;26.85;7.65;;;27.30;73.70;;;;;;5007933;28;20046;-56
2023/07/11 04:31:25;;;;;;;30.55;9.00;;;27.30;73.80;;;;;;5024416;28;20018;-56
2023/07/11 04:33:50;;;;;;;22.30;8.30;;;27.30;74.10;;;;;;5003461;28;20034;-56
2023/07/11 04:36:16;;;;;;;21.90;7.88;;;27.30;74.10;;;;;;5027823;28;20055;-56
2023/07/11 04:38:42;;;;;;;16.77;8.23;;;27.30;74.00;;;;;;5027956;28;20040;-57
2023/07/11 04:41:08;;;;;;;21.80;7.47;;;27.30;74.00;;;;;;5028999;28;20022;-56
2023/07/11 04:43:34;;;;;;;21.35;7.20;;;27.30;73.90;;;;;;5010094;28;20393;-56
2023/07/11 04:46:00;;;;;;;24.85;7.50;;;27.30;74.00;;;;;;5027426;28;20053;-57
2023/07/11 04:48:26;;;;;;;15.30;6.97;;;27.30;74.80;;;;;;4993031;28;20054;-56
2023/07/11 04:51:03;;;;;;;18.15;7.25;;;27.20;74.10;;;;;;5023823;28;20028;-56
2023/07/11 04:53:29;;;;;;;14.85;6.85;;;27.20;74.00;;;;;;5027050;28;20053;-56
2023/07/11 04:56:05;;;;;;;10.98;6.38;;;27.30;74.10;;;;;;5024367;28;20018;-56
2023/07/11 04:58:31;;;;;;;13.85;6.72;;;27.30;74.20;;;;;;5027919;28;20037;-57
2023/07/11 05:01:18;;;;;;;14.02;6.55;;;27.30;74.50;;;;;;5016645;28;20065;-57
2023/07/11 05:03:44;;;;;;;15.23;6.18;;;27.30;74.30;;;;;;5029125;28;20129;-57
2023/07/11 05:06:11;;;;;;;13.82;6.15;;;27.30;74.60;;;;;;5025315;28;20034;-57
2023/07/11 05:08:37;;;;;;;15.48;6.70;;;27.20;74.30;;;;;;5026657;28;20052;-57
2023/07/11 05:11:07;;;;;;;16.60;6.47;;;27.20;74.30;;;;;;5026198;28;20049;-57
2023/07/11 05:13:33;;;;;;;21.05;6.47;;;27.20;74.30;;;;;;5027785;28;20041;-57
2023/07/11 05:15:59;;;;;;;17.20;6.40;;;27.20;74.40;;;;;;5010050;28;20034;-57
2023/07/11 05:18:25;;;;;;;15.75;6.78;;;27.20;74.50;;;;;;5027067;28;20041;-57
2023/07/11 05:20:56;;;;;;;22.30;6.65;;;27.10;74.80;;;;;;5027995;28;20470;-57
2023/07/11 05:23:23;;;;;;;15.18;6.10;;;27.10;74.80;;;;;;5008954;28;20118;-56
2023/07/11 05:25:49;;;;;;;15.40;6.07;;;27.10;74.90;;;;;;5007895;28;20038;-57
2023/07/11 05:28:16;;;;;;;12.57;5.68;;;27.10;74.90;;;;;;5012104;28;20049;-57
2023/07/11 05:30:41;;;;;;;14.70;6.10;;;27.10;75.00;;;;;;5013826;28;20129;-57
2023/07/11 05:33:07;;;;;;;13.05;6.38;;;27.00;75.00;;;;;;5010278;28;20034;-57
2023/07/11 05:35:47;;;;;;;11.63;6.15;;;27.10;75.40;;;;;;5020788;28;20386;-57
2023/07/11 05:38:14;;;;;;;7.57;5.65;;;27.10;75.30;;;;;;4997288;28;20042;-57
2023/07/11 05:40:42;;;;;;;11.13;5.93;;;27.10;75.20;;;;;;4974583;28;20054;-57
2023/07/11 05:43:08;;;;;;;18.33;6.63;;;27.00;75.50;;;;;;4989772;28;20055;-57
2023/07/11 05:45:34;;;;;;;11.25;5.85;;;27.00;75.40;;;;;;4990533;28;20036;-57
2023/07/11 05:48:00;;;;;;;26.15;6.15;;;27.00;75.90;;;;;;4987482;28;20089;-57
2023/07/11 05:50:26;;;;;;;17.65;6.80;;;27.00;77.70;;;;;;4989219;28;20408;-57
2023/07/11 05:52:52;;;;;;;10.43;6.57;;;26.90;77.70;;;;;;4991893;28;20058;-57
2023/07/11 05:55:17;;;;;;;15.57;6.70;;;26.90;78.10;;;;;;4970848;28;20033;-57
2023/07/11 05:57:43;;;;;;;10.35;6.25;;;26.80;78.50;;;;;;4970436;28;20050;-57
2023/07/11 06:00:12;;;;;;;29.02;7.30;;;26.80;78.90;;;;;;4990242;28;20422;-57
2023/07/11 06:02:37;;;;;;;21.55;7.00;;;26.70;79.30;;;;;;4971574;28;20034;-57
2023/07/11 06:05:03;;;;;;;18.15;6.55;;;26.70;79.70;;;;;;5002332;28;20041;-57
2023/07/11 06:07:30;;;;;;;15.95;6.85;;;26.60;79.80;;;;;;5003851;28;20031;-57
2023/07/11 06:09:56;;;;;;;16.95;6.60;;;26.60;79.90;;;;;;5004736;28;20090;-58
2023/07/11 06:12:22;;;;;;;12.07;6.78;;;26.60;80.10;;;;;;5026384;28;20030;-57
2023/07/11 06:14:49;;;;;;;20.10;6.70;;;26.60;80.60;;;;;;5025795;28;20355;-57
2023/07/11 06:17:15;;;;;;;25.58;6.60;;;26.60;81.00;;;;;;5021412;28;20038;-57
2023/07/11 06:19:40;;;;;;;16.50;7.07;;;26.60;81.20;;;;;;5026284;28;20053;-57
2023/07/11 06:22:06;;;;;;;22.73;6.68;;;26.60;81.30;;;;;;5027196;28;20028;-57
2023/07/11 06:24:32;;;;;;;49.03;8.18;;;26.50;81.20;;;;;;5020416;28;20034;-57
2023/07/11 06:26:57;;;;;;;10.15;6.40;;;26.50;81.30;;;;;;5014854;28;20025;-57
2023/07/11 06:29:23;;;;;;;11.45;6.75;;;26.50;81.60;;;;;;5028031;28;20093;-57
2023/07/11 06:31:48;;;;;;;13.95;6.65;;;26.50;81.80;;;;;;5014287;28;20497;-57
2023/07/11 06:34:14;;;;;;;19.95;7.68;;;26.50;81.90;;;;;;5028224;28;20034;-57
2023/07/11 06:36:39;;;;;;;27.95;9.07;;;26.50;81.90;;;;;;5026678;28;20041;-57
2023/07/11 06:39:06;;;;;;;34.95;9.15;;;26.50;82.00;;;;;;5006377;28;20042;-57
2023/07/11 06:41:32;;;;;;;23.33;7.45;;;26.50;82.80;;;;;;5005015;28;20548;-57
2023/07/11 06:43:57;;;;;;;14.45;7.18;;;26.50;82.50;;;;;;5011774;28;20031;-57
2023/07/11 06:46:23;;;;;;;22.52;7.32;;;26.50;82.50;;;;;;5020485;28;20030;-57
2023/07/11 06:48:48;;;;;;;17.48;7.68;;;26.50;82.40;;;;;;5019506;28;20057;-57
2023/07/11 06:51:14;;;;;;;18.27;7.63;;;26.50;82.50;;;;;;5022639;28;20040;-57
2023/07/11 06:53:39;;;;;;;28.83;9.30;;;26.50;82.40;;;;;;5023588;28;20436;-58
2023/07/11 06:56:05;;;;;;;44.83;10.63;;;26.50;82.70;;;;;;5022055;28;20033;-57
2023/07/11 06:58:31;;;;;;;43.88;10.50;;;26.50;82.50;;;;;;5016122;28;20094;-57
2023/07/11 07:01:01;;;;;;;35.47;9.93;;;26.50;82.70;;;;;;5008289;28;20018;-57
2023/07/11 07:03:27;;;;;;;16.15;7.15;;;26.50;82.70;;;;;;5008879;28;20030;-57
2023/07/11 07:05:55;;;;;;;22.33;8.23;;;26.50;82.50;;;;;;5023570;28;20224;-57
2023/07/11 07:08:21;;;;;;;21.83;7.53;;;26.50;82.20;;;;;;4997906;28;20030;-58
2023/07/11 07:10:47;;;;;;;36.75;10.13;;;26.50;82.10;;;;;;5013184;28;20447;-57
2023/07/11 07:13:13;;;;;;;48.90;11.07;;;26.50;81.90;;;;;;5019020;28;20033;-57
2023/07/11 07:15:38;;;;;;;19.30;8.43;;;26.60;82.50;;;;;;5025194;28;20395;-57
2023/07/11 07:18:04;;;;;;;25.40;9.10;;;26.60;82.10;;;;;;5010608;28;20038;-57
2023/07/11 07:20:29;;;;;;;39.40;9.60;;;26.60;82.10;;;;;;5024529;28;20041;-57
2023/07/11 07:22:55;;;;;;;40.65;9.50;;;26.60;82.30;;;;;;5020065;28;20033;-57
2023/07/11 07:25:21;;;;;;;45.35;10.07;;;26.60;82.20;;;;;;5007132;28;20033;-57
2023/07/11 07:27:46;;;;;;;47.80;12.00;;;26.60;82.10;;;;;;5020486;28;20042;-57
2023/07/11 07:30:12;;;;;;;38.25;10.55;;;26.60;82.00;;;;;;5008481;28;20026;-57
2023/07/11 07:32:37;;;;;;;40.45;10.68;;;26.60;81.80;;;;;;5028678;28;20025;-57
2023/07/11 07:35:04;;;;;;;43.55;11.52;;;26.60;82.10;;;;;;5026644;28;20026;-57
2023/07/11 07:37:29;;;;;;;68.15;12.30;;;26.60;82.20;;;;;;5026154;28;20097;-56
2023/07/11 07:39:55;;;;;;;55.92;13.07;;;26.60;82.20;;;;;;5025573;28;20391;-57
2023/07/11 07:42:20;;;;;;;49.65;12.70;;;26.70;82.20;;;;;;5025053;28;20493;-58
2023/07/11 07:44:47;;;;;;;58.65;12.65;;;26.70;82.30;;;;;;5024869;28;20082;-57
2023/07/11 07:47:12;;;;;;;68.45;14.43;;;26.70;82.30;;;;;;5025015;28;20057;-57
2023/07/11 07:49:38;;;;;;;84.13;15.27;;;26.80;82.60;;;;;;5026139;28;20034;-57
2023/07/11 07:52:04;;;;;;;72.05;14.32;;;26.80;82.60;;;;;;5012866;28;20034;-57
2023/07/11 07:54:30;;;;;;;113.07;18.77;;;26.80;83.00;;;;;;5024587;28;20040;-57
2023/07/11 07:56:55;;;;;;;190.30;24.10;;;26.80;82.90;;;;;;5024311;28;20073;-57
2023/07/11 07:59:21;;;;;;;129.02;20.10;;;26.90;84.10;;;;;;5017822;28;20033;-57
2023/07/11 08:01:46;;;;;;;74.60;16.95;;;27.00;84.00;;;;;;4998890;28;20422;-58
2023/07/11 08:04:12;;;;;;;97.93;17.20;;;27.00;83.10;;;;;;5026105;28;20042;-57
2023/07/11 08:06:37;;;;;;;112.00;19.75;;;27.00;82.90;;;;;;5022734;28;20045;-57
2023/07/11 08:09:03;;;;;;;79.13;16.17;;;27.00;82.90;;;;;;5019538;28;20034;-57
2023/07/11 08:11:29;;;;;;;100.97;18.02;;;27.00;82.90;;;;;;5025978;28;20390;-57
2023/07/11 08:13:54;;;;;;;61.83;14.48;;;27.00;83.10;;;;;;5024135;28;20117;-58
2023/07/11 08:16:20;;;;;;;66.35;13.55;;;27.00;83.10;;;;;;5028336;28;20044;-57
2023/07/11 08:18:45;;;;;;;73.68;13.60;;;27.00;83.00;;;;;;5032211;28;20030;-57
2023/07/11 08:21:11;;;;;;;32.80;11.77;;;27.00;83.80;;;;;;5024302;28;20085;-57
2023/07/11 08:23:37;;;;;;;64.22;14.07;;;27.00;83.40;;;;;;5013565;28;20037;-57
2023/07/11 08:26:02;;;;;;;71.72;16.23;;;27.00;83.90;;;;;;5023504;28;20084;-57
2023/07/11 08:28:28;;;;;;;105.57;19.85;;;27.10;83.10;;;;;;5022068;28;20094;-57
2023/07/11 08:30:54;;;;;;;102.40;18.80;;;27.10;83.10;;;;;;5018991;28;20030;-57
2023/07/11 08:33:19;;;;;;;114.95;18.83;;;27.20;83.00;;;;;;5022515;28;20077;-57
2023/07/11 08:35:45;;;;;;;83.18;17.85;;;27.20;83.00;;;;;;5016235;28;20022;-57
2023/07/11 08:38:13;;;;;;;101.18;18.92;;;27.20;82.70;;;;;;5023786;28;20033;-57
2023/07/11 08:40:43;;;;;;;85.75;17.50;;;27.20;82.90;;;;;;5025303;28;20355;-57
2023/07/11 08:43:27;;;;;;;85.22;18.38;;;27.20;83.00;;;;;;5021907;28;20038;-57
2023/07/11 08:45:59;;;;;;;82.65;17.90;;;27.20;82.90;;;;;;5023936;28;20030;-57
2023/07/11 08:48:32;;;;;;;105.47;19.52;;;27.30;82.80;;;;;;5016699;28;20578;-57
2023/07/11 08:51:09;;;;;;;85.82;18.08;;;27.30;83.60;;;;;;5028053;28;20038;-57
2023/07/11 08:53:37;;;;;;;74.80;16.60;;;27.30;83.50;;;;;;5014141;28;20036;-57
2023/07/11 08:56:41;;;;;;;84.93;16.52;;;27.40;82.80;;;;;;5026985;28;20018;-57
2023/07/11 08:59:10;;;;;;;82.10;16.92;;;27.40;82.60;;;;;;5024780;28;20058;-57
2023/07/11 09:02:13;;;;;;;80.75;17.25;;;27.50;82.40;;;;;;5027842;28;20014;-57
2023/07/11 09:04:47;;;;;;;69.57;14.98;;;27.50;82.10;;;;;;4974198;28;20052;-57
2023/07/11 09:07:33;;;;;;;96.68;19.23;;;27.60;81.90;;;;;;5007779;28;20022;-57
2023/07/11 09:09:59;;;;;;;79.65;17.17;;;27.60;81.80;;;;;;5008658;28;20023;-57
2023/07/11 09:12:26;;;;;;;59.70;13.70;;;27.70;81.50;;;;;;5016627;28;20324;-57
2023/07/11 09:15:07;;;;;;;123.55;22.50;;;27.70;81.00;;;;;;5019573;28;20040;-57
2023/07/11 09:17:39;;;;;;;126.88;20.00;;;27.70;81.20;;;;;;5005814;28;20097;-57
2023/07/11 09:20:14;;;;;;;92.60;15.90;;;27.80;80.80;;;;;;5028305;28;20072;-57
2023/07/11 09:22:41;;;;;;;;;;;27.80;80.40;;;;;;5023312;28;20041;-57
2023/07/11 09:25:12;;;;;;;82.72;16.67;;;27.90;80.40;;;;;;5026156;28;20354;-57
2023/07/11 09:27:44;;;;;;;59.95;11.32;;;27.90;80.10;;;;;;5023547;28;20042;-57
2023/07/11 09:30:27;;;;;;;64.20;13.63;;;27.90;79.50;;;;;;5023784;28;20033;-57
2023/07/11 09:32:53;;;;;;;61.33;12.60;;;28.00;79.20;;;;;;5000315;28;20029;-57
2023/07/11 09:35:30;;;;;;;42.22;11.30;;;28.00;79.00;;;;;;5004441;28;20057;-57
2023/07/11 09:38:28;;;;;;;30.83;10.48;;;28.10;78.30;;;;;;5015892;28;20042;-57
2023/07/11 09:41:03;;;;;;;59.08;12.50;;;28.10;77.90;;;;;;5007585;28;20045;-57
2023/07/11 09:43:28;;;;;;;;;;;28.20;77.40;;;;;;5020449;28;20045;-57
2023/07/11 09:45:54;;;;;;;;;;;28.20;77.40;;;;;;5027545;28;19910;-57
2023/07/11 09:48:34;;;;;;;24.30;9.07;;;28.20;75.80;;;;;;5026170;28;19922;-57
2023/07/11 09:51:24;;;;;;;29.63;9.48;;;28.20;75.30;;;;;;5019711;28;20035;-56
2023/07/11 09:53:53;;;;;;;43.30;9.60;;;28.30;74.90;;;;;;5018071;28;20076;-57
2023/07/11 09:56:18;;;;;;;25.27;8.73;;;28.30;75.40;;;;;;5021715;28;20026;-57
2023/07/11 09:58:57;;;;;;;30.98;9.07;;;28.40;75.10;;;;;;5013721;28;20109;-57
2023/07/11 10:01:25;;;;;;;27.83;9.50;;;28.40;75.20;;;;;;5013314;28;20022;-57
2023/07/11 10:03:53;;;;;;;35.80;9.73;;;28.50;75.20;;;;;;4999320;28;20105;-57
2023/07/11 10:06:42;;;;;;;32.00;9.70;;;28.50;74.90;;;;;;5015986;28;20045;-57
2023/07/11 10:09:17;;;;;;;41.42;10.70;;;28.50;74.40;;;;;;5022560;28;20049;-57
2023/07/11 10:11:50;;;;;;;35.08;9.95;;;28.60;74.50;;;;;;5023567;28;20081;-57
2023/07/11 10:14:20;;;;;;;45.20;10.35;;;28.60;74.40;;;;;;5020364;28;20096;-57
2023/07/11 10:16:46;;;;;;;60.25;12.93;;;28.70;74.30;;;;;;5001943;28;20041;-57
2023/07/11 10:19:18;;;;;;;48.67;10.70;;;28.70;74.20;;;;;;5020381;28;20478;-57
2023/07/11 10:21:46;;;;;;;42.88;9.35;;;28.70;74.00;;;;;;5021111;28;20062;-57
2023/07/11 10:24:23;;;;;;;31.92;9.00;;;28.80;73.60;;;;;;5019905;28;20037;-57
2023/07/11 10:26:51;;;;;;;28.40;8.65;;;28.80;73.40;;;;;;5020243;28;20032;-58
2023/07/11 10:29:18;;;;;;;30.88;9.02;;;28.90;73.10;;;;;;5023660;28;20052;-57
2023/07/11 10:31:49;;;;;;;31.80;8.68;;;28.90;72.80;;;;;;5019217;28;20048;-57
2023/07/11 10:34:24;;;;;;;32.15;9.02;;;29.00;72.70;;;;;;5019523;28;20033;-57
2023/07/11 10:36:50;;;;;;;30.70;9.65;;;29.00;72.20;;;;;;5019952;28;20109;-57
2023/07/11 10:39:36;;;;;;;34.35;9.15;;;29.10;72.00;;;;;;5021699;28;20034;-57
2023/07/11 10:42:06;;;;;;;27.38;8.52;;;29.20;71.60;;;;;;5019935;28;20052;-57
2023/07/11 10:44:40;;;;;;;34.78;9.05;;;29.20;72.10;;;;;;5002620;28;20026;-57
2023/07/11 10:47:08;;;;;;;45.65;9.68;;;29.30;71.30;;;;;;5013769;28;20060;-57
2023/07/11 10:49:47;;;;;;;33.33;9.43;;;29.30;71.00;;;;;;5001735;28;20026;-57
2023/07/11 10:52:22;;;;;;;39.45;9.65;;;29.40;70.90;;;;;;5019027;28;20030;-57
2023/07/11 10:55:01;;;;;;;26.92;8.50;;;29.50;70.80;;;;;;5003722;28;20022;-57
2023/07/11 10:57:46;;;;;;;20.63;7.57;;;29.60;70.50;;;;;;5014651;28;20038;-56
2023/07/11 11:00:17;;;;;;;22.38;7.25;;;29.60;70.00;;;;;;5017825;28;20034;-56
2023/07/11 11:02:55;;;;;;;24.52;7.82;;;29.70;69.70;;;;;;5014153;28;20121;-56
2023/07/11 11:05:47;;;;;;;17.05;7.03;;;29.80;69.30;;;;;;5011512;28;20026;-56
2023/07/11 11:08:33;;;;;;;14.70;6.85;;;29.90;68.70;;;;;;4970704;28;20042;-56
2023/07/11 11:11:24;;;;;;;;;;;30.00;68.50;;;;;;5017635;28;20033;-56
2023/07/11 11:14:02;;;;;;;14.88;5.97;;;30.10;68.00;;;;;;4992946;28;19917;-56
2023/07/11 11:16:58;;;;;;;12.05;5.53;;;30.20;67.30;;;;;;5016000;28;20025;-56
2023/07/11 11:19:26;;;;;;;;;;;30.30;66.90;;;;;;5019679;28;20089;-55
2023/07/11 11:21:57;;;;;;;15.20;6.25;;;30.40;66.40;;;;;;5015782;28;19910;-56
2023/07/11 11:24:33;;;;;;;30.98;7.43;;;30.50;66.20;;;;;;5016217;28;20383;-56
2023/07/11 11:27:24;;;;;;;18.75;6.72;;;30.70;66.00;;;;;;5011632;28;20037;-52
2023/07/11 11:30:02;;;;;;;34.08;7.43;;;30.80;66.00;;;;;;5015818;28;20023;-51
2023/07/11 11:32:49;;;;;;;24.88;7.82;;;30.90;65.40;;;;;;5018239;28;20041;-52
2023/07/11 11:35:41;;;;;;;63.70;12.13;;;31.00;65.10;;;;;;5023981;28;20022;-52
2023/07/11 11:38:23;;;;;;;73.97;12.60;;;31.10;64.50;;;;;;5014648;28;20034;-52
2023/07/11 11:40:51;;;;;;;74.32;12.25;;;31.20;64.40;;;;;;5018071;28;20105;-52
2023/07/11 11:43:17;;;;;;;96.10;14.18;;;31.30;63.90;;;;;;5019708;28;20540;-51
2023/07/11 11:45:43;;;;;;;75.13;12.20;;;31.40;63.80;;;;;;5013537;28;20455;-52
2023/07/11 11:48:23;;;;;;;59.83;10.95;;;31.50;63.60;;;;;;5007130;28;20034;-52
2023/07/11 11:50:49;;;;;;;57.95;10.65;;;31.60;63.50;;;;;;5017697;28;20030;-52
2023/07/11 11:53:22;;;;;;;39.25;9.32;;;31.70;63.10;;;;;;5019224;28;20045;-52
2023/07/11 11:55:50;;;;;;;37.30;7.80;;;31.70;62.70;;;;;;5009954;28;20069;-52
2023/07/11 11:58:16;;;;;;;48.92;10.23;;;31.80;62.40;;;;;;5016812;28;20077;-52
2023/07/11 12:00:46;;;;;;;74.47;11.77;;;31.80;62.20;;;;;;5016379;28;20034;-52
2023/07/11 12:03:34;;;;;;;163.13;21.15;;;32.00;62.20;;;;;;4993828;28;20033;-52
2023/07/11 12:06:01;;;;;;;76.25;11.48;;;32.00;62.30;;;;;;5013104;28;20029;-52
2023/07/11 12:08:31;;;;;;;68.35;10.05;;;32.10;62.00;;;;;;5010902;28;20034;-52
2023/07/11 12:11:06;;;;;;;68.07;12.57;;;32.20;61.50;;;;;;5017008;28;20033;-51
2023/07/11 12:13:32;;;;;;;79.78;13.98;;;32.30;61.70;;;;;;5022509;28;20029;-52
2023/07/11 12:16:01;;;;;;;84.40;13.57;;;32.30;61.40;;;;;;5018099;28;20048;-52
2023/07/11 12:18:51;;;;;;;67.32;10.82;;;32.40;61.10;;;;;;5013426;28;20034;-52
2023/07/11 12:21:40;;;;;;;47.67;9.68;;;32.50;60.90;;;;;;5013495;28;20038;-52
2023/07/11 12:24:44;;;;;;;60.38;10.57;;;32.60;61.00;;;;;;5016121;28;20030;-52
2023/07/11 12:27:16;;;;;;;40.63;8.38;;;32.60;60.70;;;;;;5020288;28;20049;-52
2023/07/11 12:29:51;;;;;;;58.38;9.73;;;32.70;59.90;;;;;;5028421;28;20022;-51
2023/07/11 12:32:31;;;;;;;49.22;9.65;;;32.80;60.10;;;;;;5011015;28;20041;-52
2023/07/11 12:35:06;;;;;;;44.70;9.82;;;32.90;60.10;;;;;;5026949;28;20597;-52
2023/07/11 12:38:01;;;;;;;41.63;8.90;;;33.00;59.90;;;;;;5028144;28;20089;-52
2023/07/11 12:40:39;;;;;;;40.40;8.13;;;33.10;60.00;;;;;;5025454;28;20041;-52
2023/07/11 12:43:16;;;;;;;36.10;8.55;;;33.20;59.20;;;;;;5024773;28;20046;-52
2023/07/11 12:45:42;;;;;;;34.33;7.72;;;33.30;59.30;;;;;;5025478;28;20029;-52